DTTA/TUN METAR and TAF weather

Enter ICAO airport designator
Station Type Date Time Source
DTTA METAR 2018/07/21 13:30 UTC NOAA

DTTA 211330Z 02013KT 340V040 9999 FEW046 38/19 Q1010 NOSIG


Station Type Date Time Source
DTTA Decoded METAR 2018/07/21 13:30 UTC NOAA

Tunis-Carthage, Tunisia (DTTA) 36-50N 010-14E 4M
Jul 21, 2018 - 09:30 AM EDT / 2018.07.21 1330 UTC
Wind: from the NNE (020 degrees) at 15 MPH (13 KT) (direction variable):0
Visibility: greater than 7 mile(s):0
Sky conditions: mostly clear
Temperature: 100 F (38 C)
Heat index: 104.2 F (40.1 C):1
Dew Point: 66 F (19 C)
Relative Humidity: 33%
Pressure (altimeter): 29.83 in. Hg (1010 hPa)
ob: DTTA 211330Z 02013KT 340V040 9999 FEW046 38/19 Q1010 NOSIG
cycle: 13

Station Type Date Time Source
DTTA TAF 2018/07/21 12:30 UTC NOAA

TAF DTTA 211110Z 2112/2212 18017KT 9999 FEW046
BECMG 2113/2115 01015KT


Example: see airport list